Time;durP1;ratioP1;P1;durP2;ratioP2;P2;SDS_P1;SDS_P2;PMS_P1;PMS_P2;Temp;Humidity;BMP_temperature;BMP_pressure;BME280_temperature;BME280_humidity;BME280_pressure;Samples;Min_cycle;Max_cycle;Signal;HPM_P1;HPM_P2
2022/01/20 00:00:53;;;;;;;4.85;3.40;;;2.90;99.90;;;1.97;100.00;97844.69;5033164;28;20044;-39
2022/01/20 00:03:23;;;;;;;6.55;3.40;;;2.80;99.90;;;1.92;100.00;97839.47;5032590;28;20021;-41
2022/01/20 00:08:48;;;;;;;5.18;3.05;;;2.80;99.90;;;1.84;100.00;97841.16;5031281;28;20052;-40
2022/01/20 00:27:50;;;;;;;4.20;2.78;;;2.80;99.90;;;1.98;100.00;97856.84;5030498;28;20071;-38
2022/01/20 00:35:20;;;;;;;4.75;2.65;;;2.80;99.90;;;1.86;100.00;97853.31;5034849;28;20056;-38
2022/01/20 00:37:46;;;;;;;4.93;2.72;;;2.80;99.90;;;1.81;100.00;97849.84;5036874;28;20033;-39
2022/01/20 00:40:13;;;;;;;4.38;2.88;;;2.80;99.90;;;1.84;100.00;97860.22;5038105;28;20124;-41
2022/01/20 00:42:39;;;;;;;4.78;2.72;;;2.80;99.90;;;1.82;100.00;97858.50;5036677;28;20028;-38
2022/01/20 00:45:06;;;;;;;4.80;2.90;;;2.70;99.90;;;1.79;100.00;97858.47;5037527;28;20502;-40
2022/01/20 00:47:32;;;;;;;4.25;2.70;;;2.70;99.90;;;1.79;100.00;97864.53;5034619;28;20040;-39
2022/01/20 00:49:57;;;;;;;5.60;3.17;;;2.60;99.90;;;1.75;100.00;97880.13;5039194;28;20052;-38
2022/01/20 00:52:23;;;;;;;5.03;2.88;;;2.60;99.90;;;1.72;100.00;97883.56;5036679;28;20029;-40
2022/01/20 00:54:49;;;;;;;5.15;2.83;;;2.60;99.90;;;1.75;100.00;97890.53;5036286;28;20478;-41
2022/01/20 00:57:15;;;;;;;3.90;2.45;;;2.60;99.90;;;1.71;100.00;97889.66;5034990;28;20060;-39
2022/01/20 00:59:41;;;;;;;4.18;2.53;;;2.60;99.90;;;1.68;100.00;97880.06;5035723;28;20040;-39
2022/01/20 01:02:10;;;;;;;5.97;2.85;;;2.60;99.90;;;1.67;100.00;97883.56;5044511;28;20037;-37
2022/01/20 01:04:40;;;;;;;3.60;2.15;;;2.60;99.90;;;1.82;100.00;97884.50;5041174;28;20112;-40
2022/01/20 01:07:28;;;;;;;4.25;2.40;;;2.60;99.90;;;1.74;100.00;97886.19;5041051;28;20025;-39
2022/01/20 01:09:54;;;;;;;3.33;2.30;;;2.60;99.90;;;1.71;100.00;97889.66;5035970;28;20032;-40
2022/01/20 01:12:30;;;;;;;3.88;2.22;;;2.60;99.90;;;1.69;100.00;97875.78;5033841;28;20032;-38
2022/01/20 01:14:57;;;;;;;3.90;2.25;;;2.60;99.90;;;1.70;100.00;97893.09;5034565;28;20067;-40
2022/01/20 01:22:30;;;;;;;4.07;2.10;;;2.50;99.90;;;1.56;100.00;97898.19;5031351;28;20045;-40
2022/01/20 01:24:56;;;;;;;2.97;2.30;;;2.50;99.90;;;1.58;100.00;97898.22;5034282;28;20029;-39
2022/01/20 01:27:25;;;;;;;3.38;2.00;;;2.50;99.90;;;1.56;100.00;97900.78;5034729;28;20758;-38
2022/01/20 01:33:08;;;;;;;3.13;2.35;;;2.40;99.90;;;1.53;100.00;97903.41;5031218;28;20033;-38
2022/01/20 01:35:21;;;;;;;4.05;2.25;;;2.40;99.90;;;1.54;100.00;97897.31;5032880;28;20059;-40
2022/01/20 01:40:35;;;;;;;3.50;2.00;;;2.40;99.90;;;1.52;100.00;97897.31;5033112;28;20710;-38
2022/01/20 01:43:07;;;;;;;3.42;2.15;;;2.40;99.90;;;1.53;100.00;97891.25;5034097;28;20094;-40
2022/01/20 01:45:36;;;;;;;2.33;1.90;;;2.40;99.90;;;1.55;100.00;97896.47;5025923;28;20266;-41
2022/01/20 01:48:04;;;;;;;3.40;2.33;;;2.40;99.90;;;1.56;100.00;97877.41;5040326;28;20036;-37
2022/01/20 01:50:30;;;;;;;3.78;2.42;;;2.40;99.90;;;1.59;100.00;97886.97;5039869;28;20416;-39
2022/01/20 01:52:57;;;;;;;3.42;2.22;;;2.50;99.90;;;1.55;100.00;97888.66;5040161;28;20048;-38
2022/01/20 01:55:24;;;;;;;4.32;2.10;;;2.40;99.90;;;1.53;100.00;97880.84;5038484;28;20036;-38
2022/01/20 01:57:51;;;;;;;3.15;2.28;;;2.40;99.90;;;1.55;100.00;97885.22;5038090;28;20037;-40
2022/01/20 02:00:18;;;;;;;2.67;1.83;;;2.40;99.90;;;1.62;100.00;97895.66;5026270;28;20024;-38
2022/01/20 02:02:45;;;;;;;3.90;1.90;;;2.40;99.90;;;1.61;100.00;97886.09;5034035;28;20541;-41
2022/01/20 02:05:14;;;;;;;2.22;1.73;;;2.50;99.90;;;1.64;100.00;97885.25;5034678;28;20036;-38
2022/01/20 02:18:49;;;;;;;2.65;1.80;;;2.50;99.90;;;1.61;100.00;97867.91;5034055;28;20068;-37
2022/01/20 02:21:16;;;;;;;2.22;1.65;;;2.50;99.90;;;1.70;100.00;97873.16;5034484;28;20037;-40
2022/01/20 02:23:46;;;;;;;2.28;1.70;;;2.60;99.90;;;1.67;100.00;97870.56;5033942;28;20467;-38
2022/01/20 02:26:12;;;;;;;2.55;1.70;;;2.50;99.90;;;1.65;100.00;97872.28;5032940;28;20588;-37
2022/01/20 02:28:38;;;;;;;3.67;1.75;;;2.50;99.90;;;1.71;100.00;97866.25;5033083;28;20036;-39
2022/01/20 02:31:04;;;;;;;2.65;1.77;;;2.50;99.90;;;1.65;100.00;97861.88;5032968;28;20033;-40
2022/01/20 02:33:31;;;;;;;3.35;1.88;;;2.50;99.90;;;1.57;100.00;97853.16;5033827;28;20036;-41
2022/01/20 02:36:13;;;;;;;1.98;1.38;;;2.50;99.90;;;1.55;100.00;97869.63;5034276;28;20491;-39
2022/01/20 02:38:55;;;;;;;1.35;1.05;;;2.50;99.90;;;1.51;100.00;97859.19;5033083;28;20356;-41
2022/01/20 02:46:49;;;;;;;3.38;1.50;;;2.40;99.90;;;1.50;100.00;97857.44;5033833;28;20402;-37
2022/01/20 02:49:17;;;;;;;2.30;1.52;;;2.40;99.90;;;1.49;100.00;97870.41;5034252;28;20373;-39
2022/01/20 02:51:53;;;;;;;2.15;1.55;;;2.40;99.90;;;1.53;100.00;97872.19;5032927;28;20438;-42
2022/01/20 02:54:20;;;;;;;2.75;1.58;;;2.40;99.90;;;1.51;100.00;97881.72;5033121;28;20033;-40
2022/01/20 02:56:46;;;;;;;1.83;1.48;;;2.40;99.90;;;1.43;100.00;97880.78;5032180;28;20036;-38
2022/01/20 02:59:12;;;;;;;1.40;1.30;;;2.40;99.90;;;1.45;100.00;97882.53;5031781;28;20068;-42
2022/01/20 03:01:38;;;;;;;4.07;1.40;;;2.40;99.90;;;1.47;100.00;97883.44;5032898;28;20032;-41
2022/01/20 03:04:04;;;;;;;2.17;1.48;;;2.40;99.90;;;1.52;100.00;97878.25;5029040;28;20560;-39
2022/01/20 03:06:30;;;;;;;1.48;1.15;;;2.40;99.90;;;1.53;100.00;97869.59;5035377;28;20021;-38
2022/01/20 03:08:55;;;;;;;2.40;1.20;;;2.40;99.90;;;1.61;100.00;97877.44;5032796;28;20034;-40
2022/01/20 03:11:21;;;;;;;1.60;1.25;;;2.40;99.90;;;1.62;100.00;97879.19;5034556;28;20389;-39
2022/01/20 03:13:47;;;;;;;1.33;1.15;;;2.50;99.90;;;1.63;100.00;97884.38;5032857;28;20037;-39
2022/01/20 03:16:13;;;;;;;3.47;1.55;;;2.50;99.90;;;1.66;100.00;97884.41;5034095;28;20063;-38
2022/01/20 03:18:38;;;;;;;1.52;1.23;;;2.50;99.90;;;1.73;100.00;97889.66;5033645;28;20033;-39
2022/01/20 03:21:04;;;;;;;1.48;1.15;;;2.60;99.90;;;1.74;100.00;97889.63;5031995;28;20073;-41
2022/01/20 03:23:30;;;;;;;2.58;1.42;;;2.60;99.90;;;1.71;100.00;97876.66;5017175;28;20135;-39
2022/01/20 03:25:56;;;;;;;2.20;1.40;;;2.60;99.90;;;1.81;100.00;97890.56;5032312;28;20474;-40
2022/01/20 03:28:22;;;;;;;2.65;1.60;;;2.70;99.90;;;1.84;100.00;97899.25;5032853;28;20036;-40
2022/01/20 03:30:48;;;;;;;1.92;1.40;;;2.70;99.90;;;1.83;100.00;97894.03;5034114;28;20033;-39
2022/01/20 03:33:13;;;;;;;2.22;1.35;;;2.70;99.90;;;1.84;100.00;97893.19;5032234;28;20040;-40
2022/01/20 03:35:41;;;;;;;2.03;1.55;;;2.70;99.90;;;1.82;100.00;97889.72;5034255;28;20105;-37
2022/01/20 03:38:08;;;;;;;2.38;1.70;;;2.70;99.90;;;1.82;100.00;97884.50;5018962;28;20497;-39
2022/01/20 03:40:34;;;;;;;1.80;1.55;;;2.70;99.90;;;1.84;100.00;97893.19;5032532;28;20052;-37
2022/01/20 03:42:59;;;;;;;2.67;1.85;;;2.70;99.90;;;1.84;100.00;97886.25;5032959;28;20036;-39
2022/01/20 03:45:27;;;;;;;2.05;1.63;;;2.70;99.90;;;1.82;100.00;97881.91;5030601;28;20043;-39
2022/01/20 03:47:58;;;;;;;2.53;1.65;;;2.70;99.90;;;1.88;100.00;97879.31;5032572;28;20071;-43
2022/01/20 03:50:59;;;;;;;4.18;2.15;;;2.70;99.90;;;1.88;100.00;97881.91;5030800;28;20052;-39
2022/01/20 03:53:15;;;;;;;2.33;1.83;;;2.70;99.90;;;1.89;100.00;97887.13;5031542;28;20040;-39
2022/01/20 03:55:41;;;;;;;4.00;2.03;;;2.80;99.90;;;1.89;100.00;97875.88;5020683;28;20029;-40
2022/01/20 03:58:07;;;;;;;2.70;1.88;;;2.80;99.90;;;1.94;100.00;97876.78;5035059;28;20029;-38
2022/01/20 04:00:33;;;;;;;4.35;1.83;;;2.80;99.90;;;1.93;100.00;97881.97;5035320;28;20037;-37
2022/01/20 04:02:59;;;;;;;3.30;2.10;;;2.80;99.90;;;1.91;100.00;97875.00;5037153;28;20112;-42
2022/01/20 04:05:25;;;;;;;2.47;1.90;;;2.80;99.90;;;1.95;100.00;97888.03;5033581;28;20040;-40
2022/01/20 04:07:50;;;;;;;3.08;2.00;;;2.80;99.90;;;2.02;100.00;97893.25;5038189;28;20251;-39
2022/01/20 04:10:16;;;;;;;3.38;2.08;;;2.80;99.90;;;1.96;100.00;97893.25;5035084;28;20025;-40
2022/01/20 04:12:42;;;;;;;3.15;1.70;;;2.80;99.90;;;1.89;100.00;97894.06;5035596;28;20470;-39
2022/01/20 04:15:09;;;;;;;2.17;1.63;;;2.80;99.90;;;1.87;100.00;97885.41;5036094;28;20112;-39
2022/01/20 04:17:40;;;;;;;2.65;2.03;;;2.80;99.90;;;1.84;100.00;97885.38;5032621;28;20041;-40
2022/01/20 04:20:08;;;;;;;2.95;2.05;;;2.70;99.90;;;1.82;100.00;97890.56;5037014;28;20025;-40
2022/01/20 04:22:33;;;;;;;3.45;1.98;;;2.70;99.90;;;1.84;100.00;97886.25;5033762;28;20044;-38
2022/01/20 04:24:59;;;;;;;3.80;2.10;;;2.70;99.90;;;1.85;100.00;97874.13;5029054;28;20103;-39
2022/01/20 04:27:25;;;;;;;2.75;1.90;;;2.70;99.90;;;1.84;100.00;97878.44;5032667;28;20033;-41
2022/01/20 04:29:50;;;;;;;3.60;2.20;;;2.70;99.90;;;1.81;100.00;97890.56;5036832;28;20837;-38
2022/01/20 04:32:16;;;;;;;2.88;1.98;;;2.70;99.90;;;1.71;100.00;97882.69;5033301;28;20033;-40
2022/01/20 04:34:44;;;;;;;3.95;1.67;;;2.70;99.90;;;1.71;100.00;97880.09;5033634;28;20483;-40
2022/01/20 04:37:10;;;;;;;2.97;1.75;;;2.60;99.90;;;1.76;100.00;97879.25;5038538;28;20064;-37
2022/01/20 04:39:42;;;;;;;2.33;1.60;;;2.60;99.90;;;1.70;100.00;97867.09;5033584;23;20467;-84
2022/01/20 04:42:08;;;;;;;;;;;2.60;99.90;;;1.59;100.00;97851.44;5020029;28;20038;-84
2022/01/20 04:47:13;;;;;;;2.42;1.80;;;2.70;99.90;;;1.60;100.00;97854.88;5002199;28;20482;-85
2022/01/20 04:57:52;;;;;;;2.53;1.90;;;2.70;99.90;;;1.71;100.00;97874.91;5007681;28;20998;-84
2022/01/20 05:00:17;;;;;;;3.15;2.00;;;2.70;99.90;;;1.59;100.00;97847.97;4988451;28;20033;-84
2022/01/20 05:02:43;;;;;;;2.33;1.77;;;2.70;99.90;;;1.73;100.00;97874.06;5002597;28;20053;-84
2022/01/20 05:05:09;;;;;;;4.32;2.10;;;2.70;99.90;;;1.51;100.00;97848.78;5004631;28;20037;-85
2022/01/20 05:07:35;;;;;;;3.80;1.90;;;2.60;99.90;;;1.50;100.00;97860.03;5002774;28;20394;-85
2022/01/20 05:10:06;;;;;;;2.55;1.88;;;2.60;99.90;;;1.67;100.00;97895.66;5026190;28;20026;-85
2022/01/20 05:15:16;;;;;;;5.25;2.00;;;2.50;99.90;;;1.38;100.00;97848.69;5020931;28;20037;-85
2022/01/20 05:17:41;;;;;;;2.40;1.88;;;2.50;99.90;;;1.57;100.00;97860.09;5006205;28;20037;-85
2022/01/20 05:20:08;;;;;;;2.92;2.05;;;2.50;99.90;;;1.53;100.00;97872.19;5005467;28;20029;-85
2022/01/20 05:22:34;;;;;;;3.63;2.30;;;2.50;99.90;;;1.61;100.00;97891.28;5005861;28;20095;-85
2022/01/20 05:25:00;;;;;;;3.97;2.15;;;2.50;99.90;;;1.42;100.00;97859.13;5003102;28;20038;-85
2022/01/20 05:27:25;;;;;;;3.30;2.13;;;2.50;99.90;;;1.47;100.00;97878.22;5002900;28;20529;-85
2022/01/20 05:29:51;;;;;;;4.93;2.40;;;2.50;99.90;;;1.28;100.00;97852.97;4989664;28;20045;-85
2022/01/20 05:32:17;;;;;;;2.88;2.00;;;2.50;99.90;;;1.47;100.00;97879.94;5004728;28;20029;-85
2022/01/20 05:34:43;;;;;;;2.80;2.20;;;2.50;99.90;;;1.29;100.00;97854.69;5021597;28;20014;-84
2022/01/20 05:37:08;;;;;;;3.53;2.10;;;2.40;99.90;;;1.48;100.00;97890.34;4987229;28;20037;-85
2022/01/20 05:39:34;;;;;;;3.72;2.30;;;2.40;99.90;;;1.29;100.00;97872.88;5019977;28;20533;-85
2022/01/20 05:42:00;;;;;;;3.63;2.33;;;2.40;99.90;;;1.34;100.00;97887.63;5004243;28;20025;-85
2022/01/20 05:44:26;;;;;;;3.80;2.53;;;2.40;99.90;;;1.37;100.00;97894.63;5004470;28;20033;-85
2022/01/20 05:46:53;;;;;;;5.63;2.70;;;2.40;99.90;;;1.28;100.00;97887.63;5002852;28;20117;-85
2022/01/20 05:49:21;;;;;;;4.15;2.58;;;2.40;99.90;;;1.29;100.00;97899.75;5005053;28;20124;-85
2022/01/20 05:51:54;;;;;;;4.60;2.67;;;2.30;99.90;;;1.39;100.00;97908.47;4989143;28;20117;-85
2022/01/20 05:54:21;;;;;;;3.30;2.38;;;2.30;99.90;;;1.41;100.00;97895.50;5006121;28;20022;-85
2022/01/20 05:56:47;;;;;;;4.05;2.53;;;2.30;99.90;;;1.20;100.00;97878.00;4988221;28;20148;-85
2022/01/20 05:59:13;;;;;;;4.47;2.38;;;2.30;99.90;;;1.38;100.00;97901.53;5022722;28;20162;-85
2022/01/20 06:01:39;;;;;;;3.33;2.33;;;2.30;99.90;;;1.39;100.00;97912.81;5006208;28;20060;-85
2022/01/20 06:04:08;;;;;;;4.75;2.75;;;2.20;99.90;;;1.29;100.00;97906.66;5003509;28;20438;-84
2022/01/20 06:06:35;;;;;;;4.93;2.20;;;2.20;99.90;;;1.10;100.00;97901.31;4990013;28;20395;-85
2022/01/20 06:09:08;;;;;;;3.03;2.10;;;2.10;99.90;;;1.13;100.00;97900.47;5003997;28;20060;-85
2022/01/20 06:11:34;;;;;;;;;;;2.10;99.90;;;1.18;100.00;97905.72;5002523;28;20095;-84
2022/01/20 06:14:00;;;;;;;3.40;2.25;;;2.10;99.90;;;0.86;100.00;97876.03;5006193;28;19917;-85
2022/01/20 06:16:26;;;;;;;5.65;2.78;;;2.00;99.90;;;1.02;100.00;97891.72;5002583;28;20128;-85
2022/01/20 06:18:52;;;;;;;3.67;2.40;;;2.10;99.90;;;1.19;100.00;97910.06;4989818;28;20462;-85
2022/01/20 06:21:17;;;;;;;4.85;2.60;;;2.10;99.90;;;1.12;100.00;97889.22;4989419;28;20026;-85
2022/01/20 06:23:43;;;;;;;4.03;2.58;;;2.10;99.90;;;0.83;100.00;97833.56;4996028;28;20041;-85
2022/01/20 06:26:10;;;;;;;4.80;2.60;;;2.10;99.90;;;0.79;100.00;97840.47;5005502;28;20037;-85
2022/01/20 06:28:38;;;;;;;7.53;2.97;;;2.10;99.90;;;1.24;100.00;97896.25;5003379;28;20029;-84
2022/01/20 06:31:04;;;;;;;9.90;3.22;;;2.10;99.90;;;1.19;100.00;97879.75;5012672;28;20117;-84
2022/01/20 06:33:30;;;;;;;4.85;2.97;;;2.20;99.90;;;0.93;100.00;97832.78;5020587;28;20406;-85
2022/01/20 06:35:56;;;;;;;8.35;2.95;;;2.20;99.90;;;1.22;100.00;97890.19;4991581;28;20041;-84
2022/01/20 06:38:23;;;;;;;6.05;2.90;;;2.30;99.90;;;1.40;100.00;97911.94;4988069;28;20121;-85
2022/01/20 06:40:49;;;;;;;6.15;2.95;;;2.30;99.90;;;1.33;100.00;97900.66;5003603;28;20025;-84
2022/01/20 06:43:15;;;;;;;4.35;2.72;;;2.30;99.90;;;1.01;100.00;97836.31;5002893;28;20025;-85
2022/01/20 06:45:41;;;;;;;5.75;2.70;;;2.30;99.90;;;1.22;100.00;97852.91;5008316;28;20017;-85
2022/01/20 06:48:07;;;;;;;7.13;3.13;;;2.30;99.90;;;1.37;100.00;97883.34;5021251;28;20029;-85
2022/01/20 06:50:33;;;;;;;5.75;2.92;;;2.40;99.90;;;1.27;100.00;97874.59;5003240;28;20057;-84
2022/01/20 06:52:59;;;;;;;5.18;2.75;;;2.30;99.90;;;1.14;100.00;97866.72;4996507;28;20081;-85
2022/01/20 06:55:24;;;;;;;5.40;3.15;;;2.30;99.90;;;0.92;100.00;97842.28;5018090;28;20036;-83
2022/01/20 06:57:50;;;;;;;6.95;3.72;;;2.30;99.90;;;1.23;100.00;97907.50;5023077;28;20050;-84
2022/01/20 07:00:20;;;;;;;4.93;3.13;;;2.10;99.90;;;1.13;100.00;97923.84;5011483;28;20056;-84
2022/01/20 07:02:47;;;;;;;7.60;3.22;;;2.00;99.90;;;0.71;100.00;97871.53;5003735;28;20025;-85
2022/01/20 07:05:16;;;;;;;8.52;3.33;;;1.90;99.90;;;0.53;100.00;97854.03;5002497;28;20116;-84
2022/01/20 07:07:42;;;;;;;4.47;2.70;;;1.80;99.90;;;0.83;100.00;97912.34;4988318;28;20482;-85
2022/01/20 07:10:11;;;;;;;7.15;2.95;;;1.70;99.90;;;0.63;100.00;97903.44;4994955;28;20116;-84
2022/01/20 07:12:37;;;;;;;5.03;3.13;;;1.60;99.90;;;0.70;100.00;97913.03;5003942;28;20053;-84
2022/01/20 07:15:05;;;;;;;5.15;2.80;;;1.60;99.90;;;0.59;100.00;97923.31;5017517;28;20021;-84
2022/01/20 07:17:31;;;;;;;4.50;2.80;;;1.50;99.90;;;0.36;100.00;97897.13;5003228;28;20500;-84
2022/01/20 07:19:57;;;;;;;5.15;2.67;;;1.40;99.90;;;0.47;100.00;97931.00;4987989;28;20033;-84
2022/01/20 07:22:22;;;;;;;4.45;2.78;;;1.40;99.90;;;0.24;100.00;97892.66;4984012;28;20417;-83
2022/01/20 07:24:48;;;;;;;4.95;2.75;;;1.30;99.90;;;0.41;100.00;97928.31;4987099;28;20501;-84
2022/01/20 07:27:17;;;;;;;7.78;3.00;;;1.30;99.90;;;-0.14;100.00;97866.22;5010661;28;20041;-84
2022/01/20 07:29:43;;;;;;;6.60;2.50;;;1.20;99.90;;;0.34;100.00;97938.63;5022651;28;20033;-83
2022/01/20 07:32:09;;;;;;;9.57;2.97;;;1.20;99.90;;;0.30;100.00;97959.31;5004855;28;20103;-85
2022/01/20 07:34:35;;;;;;;7.63;3.08;;;1.20;99.90;;;0.29;100.00;97955.00;5003794;28;20025;-82
2022/01/20 07:37:02;;;;;;;5.13;3.05;;;1.20;99.90;;;0.35;100.00;97965.44;5002138;28;20067;-82
2022/01/20 07:39:28;;;;;;;6.53;2.60;;;1.20;99.90;;;0.16;100.00;97949.66;5006167;28;20055;-83
2022/01/20 07:41:53;;;;;;;4.38;2.60;;;1.20;99.90;;;0.15;100.00;97950.47;5002980;28;20502;-84
2022/01/20 07:44:20;;;;;;;4.45;2.42;;;1.20;99.90;;;-0.30;100.00;97880.75;5019030;28;20035;-84
2022/01/20 07:46:47;;;;;;;6.38;2.80;;;1.20;99.90;;;0.42;100.00;97988.00;5000970;28;20485;-84
2022/01/20 07:49:15;;;;;;;9.43;3.10;;;1.20;99.90;;;0.10;100.00;97936.56;4991730;28;20080;-85
2022/01/20 07:51:41;;;;;;;6.47;2.78;;;1.30;99.90;;;0.30;100.00;97970.56;5004013;28;20021;-84
2022/01/20 07:54:07;;;;;;;5.78;3.03;;;1.30;99.90;;;0.49;100.00;97989.84;5003068;28;20076;-84
2022/01/20 07:56:32;;;;;;;7.25;2.95;;;1.30;99.90;;;0.36;100.00;97970.66;4984124;28;20033;-84
2022/01/20 07:58:58;;;;;;;8.02;2.90;;;1.40;99.90;;;0.53;100.00;97994.19;4983931;28;20040;-84
2022/01/20 08:01:24;;;;;;;4.97;2.55;;;1.40;99.90;;;0.41;100.00;97980.22;5019328;28;20026;-84
2022/01/20 08:03:52;;;;;;;8.00;2.72;;;1.40;99.90;;;0.38;100.00;97965.47;5000623;28;20558;-84
2022/01/20 08:06:19;;;;;;;6.40;2.90;;;1.40;99.90;;;0.55;100.00;97989.91;4984864;28;20116;-84
2022/01/20 08:08:46;;;;;;;11.73;2.88;;;1.40;99.90;;;0.57;100.00;97975.25;5020174;28;21077;-84
2022/01/20 08:11:13;;;;;;;6.53;2.65;;;1.60;99.90;;;0.07;100.00;97889.88;5005285;28;20029;-85
2022/01/20 08:13:38;;;;;;;7.38;3.30;;;1.60;99.90;;;0.71;100.00;97954.59;5000457;28;20363;-84
2022/01/20 08:16:04;;;;;;;11.35;3.80;;;1.80;99.90;;;1.11;100.00;97991.41;5001219;28;20037;-84
2022/01/20 08:18:30;;;;;;;9.60;3.25;;;2.00;99.90;;;1.22;100.00;97985.41;5018465;28;20342;-83
2022/01/20 08:20:56;;;;;;;7.93;2.80;;;2.20;99.90;;;0.88;100.00;97895.06;4986204;28;20029;-87
2022/01/20 08:23:22;;;;;;;4.85;2.33;;;2.30;99.90;;;1.37;100.00;97945.72;5000732;28;20095;-83
2022/01/20 08:25:48;;;;;;;9.18;3.10;;;2.50;99.90;;;1.33;100.00;97934.44;4986169;28;20041;-85
2022/01/20 08:28:14;;;;;;;6.90;2.85;;;2.60;99.90;;;1.34;100.00;97926.63;5003482;28;20030;-86
2022/01/20 08:30:41;;;;;;;9.75;2.70;;;2.60;99.90;;;1.91;100.00;97992.06;5002564;28;20057;-85
2022/01/20 08:33:07;;;;;;;10.82;2.72;;;2.70;99.90;;;1.32;100.00;97904.97;5022286;28;20432;-86
2022/01/20 08:35:33;;;;;;;8.85;2.78;;;2.80;99.90;;;1.44;100.00;97917.19;4999506;28;20661;-86
2022/01/20 08:38:01;;;;;;;8.73;2.35;;;2.80;99.90;;;1.85;100.00;97981.63;5018774;28;20102;-86
2022/01/20 08:40:27;;;;;;;10.77;2.63;;;2.90;99.90;;;1.55;100.00;97940.66;5017493;28;20064;-86
2022/01/20 08:42:55;;;;;;;9.48;2.92;;;2.90;99.90;;;1.43;100.00;97917.19;5000684;28;20037;-85
2022/01/20 08:45:26;;;;;;;6.35;2.50;;;2.90;99.90;;;1.84;100.00;97992.88;5004804;28;20029;-84
2022/01/20 08:47:54;;;;;;;13.70;2.70;;;2.90;99.90;;;1.98;100.00;97992.13;4986213;28;20087;-84
2022/01/20 08:50:22;;;;;;;7.03;2.72;;;2.90;99.90;;;1.85;100.00;97986.81;5003962;28;20037;-84
2022/01/20 08:52:48;;;;;;;12.43;2.78;;;3.00;99.90;;;2.05;100.00;98015.56;5005927;28;20026;-85
2022/01/20 08:55:15;;;;;;;7.15;2.53;;;3.00;99.90;;;1.79;100.00;97980.69;5006703;28;20061;-85
2022/01/20 08:57:40;;;;;;;8.70;2.67;;;3.00;99.90;;;1.96;100.00;98017.25;5005851;28;20482;-86
2022/01/20 09:00:08;;;;;;;7.43;2.63;;;3.00;99.90;;;2.15;100.00;98045.13;5004655;28;20033;-85
2022/01/20 09:02:34;;;;;;;9.23;3.22;;;3.00;99.90;;;2.13;100.00;98045.97;5004030;28;20080;-85
2022/01/20 09:05:00;;;;;;;7.85;2.90;;;3.00;99.90;;;2.36;100.00;98048.75;5022466;28;20038;-86
2022/01/20 09:07:27;;;;;;;8.32;2.95;;;3.20;99.90;;;2.15;100.00;98021.69;5022610;28;20050;-86
2022/01/20 09:09:55;;;;;;;9.73;2.83;;;3.20;99.90;;;2.32;100.00;98068.69;5019549;28;20033;-84
2022/01/20 09:17:45;;;;;;;11.95;2.75;;;3.40;99.90;;;2.07;100.00;97960.94;5003459;28;20155;-85
2022/01/20 09:20:11;;;;;;;9.73;2.60;;;3.50;99.90;;;2.65;100.00;98041.06;5022873;28;20037;-84
2022/01/20 09:22:38;;;;;;;6.07;2.38;;;3.60;99.90;;;2.78;100.00;98055.91;5002365;28;20070;-85
2022/01/20 09:25:06;;;;;;;7.38;2.33;;;3.60;99.90;;;2.36;100.00;97978.47;5002473;28;20029;-84
2022/01/20 09:27:32;;;;;;;10.63;2.50;;;3.70;99.90;;;2.77;100.00;98022.91;5005101;28;20025;-84
2022/01/20 09:30:00;;;;;;;4.28;1.95;;;3.70;99.90;;;3.00;100.00;98041.22;5000730;28;20561;-84
2022/01/20 09:32:28;;;;;;;7.28;2.35;;;3.80;99.90;;;2.61;100.00;97990.72;5002839;28;20068;-85
2022/01/20 09:34:56;;;;;;;7.00;2.55;;;3.90;99.90;;;2.94;100.00;98050.75;5023082;28;20032;-84
2022/01/20 09:37:24;;;;;;;8.40;1.95;;;3.90;99.90;;;2.77;100.00;98004.66;5002460;28;20093;-84
2022/01/20 09:39:50;;;;;;;13.60;2.90;;;3.90;99.90;;;2.99;100.00;98044.69;5005777;28;20038;-84
2022/01/20 09:42:16;;;;;;;7.13;2.33;;;4.00;99.90;;;2.66;100.00;97990.75;5010236;28;20085;-85
2022/01/20 09:44:44;;;;;;;9.48;2.53;;;3.90;99.90;;;2.97;100.00;98046.41;5016226;28;20045;-85
2022/01/20 09:47:11;;;;;;;7.05;2.45;;;3.90;99.90;;;3.10;100.00;98041.25;5023015;28;20201;-84
2022/01/20 09:49:38;;;;;;;8.05;2.85;;;3.90;99.90;;;2.94;100.00;98022.09;4996413;28;20398;-84
2022/01/20 09:52:04;;;;;;;8.55;2.45;;;3.90;99.90;;;2.77;100.00;97989.03;5021185;28;20025;-84
2022/01/20 09:54:31;;;;;;;10.80;2.50;;;3.90;99.90;;;3.09;100.00;98039.50;5003223;28;20037;-84
2022/01/20 09:56:58;;;;;;;10.75;2.75;;;4.00;99.90;;;2.89;100.00;97993.44;5003330;28;20487;-85
2022/01/20 09:59:24;;;;;;;12.10;2.42;;;4.00;99.90;;;3.14;100.00;98006.50;4990061;28;20057;-85
2022/01/20 10:01:56;;;;;;;6.55;3.20;;;4.10;99.90;;;3.29;100.00;98048.25;5016543;28;20064;-85
2022/01/20 10:04:26;;;;;;;16.07;2.87;;;4.20;99.90;;;3.30;100.00;98052.59;5001999;28;20487;-84
2022/01/20 10:07:00;;;;;;;16.67;2.70;;;4.20;99.90;;;3.06;100.00;98029.94;5000323;28;20714;-84
2022/01/20 10:09:49;;;;;;;11.85;2.97;;;4.10;99.90;;;3.19;100.00;98059.53;5010013;28;20037;-84
2022/01/20 10:12:18;;;;;;;14.13;2.33;;;4.10;99.90;;;3.07;100.00;98042.13;4987952;28;20025;-85
2022/01/20 10:14:51;;;;;;;6.63;2.75;;;4.10;99.90;;;2.90;100.00;98035.97;5003632;28;20060;-85
2022/01/20 10:17:30;;;;;;;10.13;2.40;;;4.00;99.90;;;3.06;100.00;98049.06;5002836;28;20041;-84
2022/01/20 10:20:01;;;;;;;6.72;2.50;;;4.00;99.90;;;2.77;100.00;98003.81;4991472;28;20033;-84
2022/01/20 10:22:28;;;;;;;9.10;2.90;;;4.00;99.90;;;3.00;100.00;98032.56;5020236;28;20032;-84
2022/01/20 10:25:09;;;;;;;14.35;2.90;;;4.00;99.90;;;3.18;100.00;98076.06;5002441;28;20513;-84
2022/01/20 10:27:46;;;;;;;8.68;2.78;;;4.00;99.90;;;3.04;100.00;98063.81;5018380;28;20038;-84
2022/01/20 10:30:13;;;;;;;8.40;2.38;;;4.00;99.90;;;3.21;100.00;98078.66;5001229;28;20034;-85
2022/01/20 10:32:51;;;;;;;7.78;2.65;;;4.00;99.90;;;3.17;100.00;98075.16;5001483;28;20025;-85
2022/01/20 10:35:25;;;;;;;9.93;2.92;;;4.10;99.90;;;3.08;100.00;98056.88;4998795;28;20032;-84
2022/01/20 10:38:13;;;;;;;13.30;3.33;;;4.10;99.90;;;3.40;100.00;98064.78;5001257;28;20100;-84
2022/01/20 10:40:54;;;;;;;10.45;2.65;;;4.30;99.90;;;3.24;100.00;98042.16;4994043;28;20121;-84
2022/01/20 10:43:31;;;;;;;8.88;2.75;;;4.30;99.90;;;3.29;100.00;98063.91;5005612;28;20044;-84
2022/01/20 10:46:11;;;;;;;11.43;2.85;;;4.30;99.90;;;3.37;100.00;98053.47;5019357;28;20753;-84
2022/01/20 10:48:38;;;;;;;11.45;3.13;;;4.30;99.90;;;2.93;100.00;97974.34;4986435;28;20037;-85
2022/01/20 10:51:21;;;;;;;8.57;2.50;;;4.30;99.90;;;3.47;99.76;98050.03;5001147;28;20410;-84
2022/01/20 10:54:03;;;;;;;8.43;2.45;;;4.40;99.90;;;3.81;100.00;98055.28;4987116;28;20029;-85
2022/01/20 10:56:28;;;;;;;10.85;2.33;;;4.60;99.90;;;3.78;100.00;97996.13;4987856;28;20441;-85
2022/01/20 10:58:54;;;;;;;10.07;2.95;;;4.90;99.90;;;4.03;95.82;98019.63;4985407;28;20025;-85
2022/01/20 11:01:20;;;;;;;7.28;2.30;;;5.10;99.90;;;3.63;94.99;97981.38;5019385;28;20025;-85
2022/01/20 11:03:46;;;;;;;5.90;2.13;;;5.10;99.90;;;3.93;95.35;98041.38;4984732;28;20075;-84
2022/01/20 11:06:12;;;;;;;4.57;1.90;;;5.00;99.90;;;3.82;96.34;98034.44;5007485;28;20060;-84
2022/01/20 11:08:40;;;;;;;6.13;2.40;;;4.90;99.90;;;3.84;100.00;98013.56;4991736;28;20120;-85
2022/01/20 11:11:06;;;;;;;5.65;2.35;;;4.90;99.90;;;3.76;99.93;97991.81;4985640;28;20022;-84
2022/01/20 11:13:32;;;;;;;6.88;2.20;;;5.00;99.90;;;3.79;96.86;98023.13;4988473;28;20021;-84
2022/01/20 11:15:57;;;;;;;8.75;2.90;;;4.90;99.90;;;3.48;99.44;97983.97;5019186;28;20072;-83
2022/01/20 11:18:30;;;;;;;9.32;2.33;;;4.70;99.90;;;3.48;100.00;97997.00;4998860;28;20120;-84
2022/01/20 11:20:57;;;;;;;10.95;3.00;;;4.60;99.90;;;3.34;98.08;97998.72;4989256;28;20521;-85
2022/01/20 11:23:22;;;;;;;8.82;2.70;;;4.50;99.90;;;3.39;100.00;97986.56;5002504;28;20366;-84
2022/01/20 11:25:49;;;;;;;7.80;2.70;;;4.50;99.90;;;3.42;100.00;97987.44;5016880;28;20059;-84
2022/01/20 11:28:24;;;;;;;8.20;3.03;;;4.50;99.90;;;3.56;100.00;98000.50;5001533;28;20030;-84
2022/01/20 11:31:00;;;;;;;8.25;2.58;;;4.60;99.90;;;3.59;100.00;97981.38;5003022;28;20280;-84
2022/01/20 11:33:40;;;;;;;9.10;3.10;;;4.60;99.90;;;3.89;100.00;98006.56;5001632;28;20164;-84
2022/01/20 11:36:21;;;;;;;9.10;2.55;;;4.70;99.90;;;3.54;95.91;97952.69;5001242;28;20033;-84
2022/01/20 11:38:49;;;;;;;6.78;2.90;;;4.80;99.90;;;3.63;96.53;97978.75;5020458;28;20058;-84